Time;durP1;ratioP1;P1;durP2;ratioP2;P2;SDS_P1;SDS_P2;PMS_P1;PMS_P2;Temp;Humidity;BMP_temperature;BMP_pressure;BME280_temperature;BME280_humidity;BME280_pressure;Samples;Min_cycle;Max_cycle;Signal;HPM_P1;HPM_P2
2021/10/13 00:00:48;;;;;;;1.77;1.20;;;;;;;;;;5057684;28;20672;-69
2021/10/13 00:03:16;;;;;;;3.00;1.20;;;;;;;;;;5067073;28;20239;-68
2021/10/13 00:05:45;;;;;;;2.10;1.20;;;;;;;;;;5067611;28;20201;-68
2021/10/13 00:08:13;;;;;;;1.60;1.10;;;;;;;;;;5082246;28;20407;-69
2021/10/13 00:10:46;;;;;;;2.90;1.47;;;;;;;;;;5078527;28;20608;-69
2021/10/13 00:13:17;;;;;;;1.60;1.00;;;;;;;;;;5087253;28;20650;-69
2021/10/13 00:15:47;;;;;;;2.40;1.30;;;;;;;;;;5088646;28;20189;-68
2021/10/13 00:18:20;;;;;;;1.93;1.20;;;;;;;;;;5089394;28;20535;-69
2021/10/13 00:20:52;;;;;;;2.07;1.17;;;;;;;;;;5065605;28;20653;-68
2021/10/13 00:23:27;;;;;;;1.40;1.00;;;;;;;;;;5090473;28;20285;-68
2021/10/13 00:26:00;;;;;;;2.87;1.50;;;;;;;;;;5085548;28;21561;-68
2021/10/13 00:28:31;;;;;;;2.63;1.40;;;;;;;;;;5089549;28;20563;-68
2021/10/13 00:31:02;;;;;;;1.97;1.40;;;;;;;;;;5081265;28;20196;-68
2021/10/13 00:33:32;;;;;;;1.73;1.43;;;;;;;;;;5087576;28;20216;-68
2021/10/13 00:36:03;;;;;;;1.40;1.13;;;;;;;;;;5086297;28;20201;-68
2021/10/13 00:38:34;;;;;;;2.17;1.30;;;;;;;;;;5089315;28;20196;-68
2021/10/13 00:41:05;;;;;;;3.00;1.53;;;;;;;;;;5066685;28;20208;-69
2021/10/13 00:43:34;;;;;;;1.40;1.30;;;;;;;;;;5087391;28;20232;-68
2021/10/13 00:46:05;;;;;;;1.67;1.10;;;;;;;;;;5088196;28;20225;-68
2021/10/13 00:48:34;;;;;;;2.33;1.10;;;;;;;;;;5094094;28;20213;-69
2021/10/13 00:51:05;;;;;;;1.70;1.20;;;;;;;;;;5068731;28;20205;-69
2021/10/13 00:53:39;;;;;;;2.30;1.33;;;;;;;;;;5092727;28;20216;-69
2021/10/13 00:56:26;;;;;;;1.77;1.13;;;;;;;;;;5098642;28;20219;-69
2021/10/13 00:59:02;;;;;;;1.33;1.00;;;;;;;;;;5063527;28;20200;-69
2021/10/13 01:02:05;;;;;;;2.53;1.13;;;;;;;;;;5086881;28;20230;-69
2021/10/13 01:04:47;;;;;;;1.50;1.10;;;;;;;;;;5024531;28;20201;-69
2021/10/13 01:07:33;;;;;;;1.83;1.20;;;;;;;;;;5063793;28;20238;-68
2021/10/13 01:10:13;;;;;;;1.30;1.20;;;;;;;;;;5068662;28;20201;-68
2021/10/13 01:13:01;;;;;;;2.57;1.30;;;;;;;;;;5066573;28;20206;-68
2021/10/13 01:15:43;;;;;;;3.00;1.27;;;;;;;;;;5068338;28;20214;-68
2021/10/13 01:18:29;;;;;;;2.67;1.23;;;;;;;;;;5067083;28;20193;-69
2021/10/13 01:21:09;;;;;;;1.63;1.23;;;;;;;;;;5064018;28;20227;-69
2021/10/13 01:24:01;;;;;;;2.17;1.40;;;;;;;;;;5068496;28;20193;-69
2021/10/13 01:26:50;;;;;;;2.53;1.53;;;;;;;;;;5029665;28;20241;-69
2021/10/13 01:29:26;;;;;;;2.10;1.40;;;;;;;;;;5070580;28;20796;-69
2021/10/13 02:11:25;;;;;;;3.10;1.80;;;;;;;;;;5086253;28;20204;-68
2021/10/13 02:13:56;;;;;;;1.63;1.40;;;;;;;;;;5089666;28;20193;-69
2021/10/13 02:16:28;;;;;;;2.13;1.47;;;;;;;;;;5106539;27;20204;-69
2021/10/13 02:19:01;;;;;;;2.70;1.30;;;;;;;;;;5102592;27;20197;-69
2021/10/13 02:21:30;;;;;;;3.07;1.80;;;;;;;;;;5095518;28;20226;-69
2021/10/13 02:24:03;;;;;;;2.30;1.30;;;;;;;;;;5084161;28;20213;-69
2021/10/13 02:26:50;;;;;;;2.00;1.17;;;;;;;;;;5075978;28;20658;-69
2021/10/13 02:29:20;;;;;;;2.70;1.20;;;;;;;;;;5087493;28;20185;-69
2021/10/13 02:31:48;;;;;;;2.07;1.30;;;;;;;;;;5078831;28;20197;-69
2021/10/13 02:34:29;;;;;;;2.27;1.20;;;;;;;;;;5102407;27;20712;-68
2021/10/13 02:36:58;;;;;;;2.63;1.50;;;;;;;;;;5084985;28;20667;-69
2021/10/13 02:39:29;;;;;;;2.50;1.30;;;;;;;;;;5104735;28;20205;-69
2021/10/13 02:42:02;;;;;;;4.27;1.43;;;;;;;;;;5089289;28;20197;-69
2021/10/13 02:44:37;;;;;;;2.60;1.20;;;;;;;;;;5090811;28;20197;-68
2021/10/13 02:47:09;;;;;;;2.63;1.00;;;;;;;;;;5083177;28;20221;-69
2021/10/13 02:50:03;;;;;;;2.00;1.33;;;;;;;;;;5090383;28;20243;-69
2021/10/13 02:52:38;;;;;;;2.67;1.20;;;;;;;;;;5087478;28;20205;-69
2021/10/13 02:55:16;;;;;;;2.23;1.17;;;;;;;;;;5086080;28;20205;-69
2021/10/13 02:58:06;;;;;;;1.73;1.10;;;;;;;;;;5086989;28;20213;-69
2021/10/13 03:00:37;;;;;;;1.87;1.20;;;;;;;;;;5079984;28;20582;-68
2021/10/13 03:03:20;;;;;;;2.13;1.30;;;;;;;;;;5067850;28;20212;-68
2021/10/13 03:05:50;;;;;;;1.87;1.10;;;;;;;;;;5078227;28;20189;-69
2021/10/13 03:08:24;;;;;;;2.20;1.17;;;;;;;;;;5073712;28;20217;-69
2021/10/13 03:10:59;;;;;;;1.43;1.23;;;;;;;;;;5083362;28;20239;-69
2021/10/13 03:13:34;;;;;;;2.47;1.30;;;;;;;;;;5058160;28;20224;-69
2021/10/13 03:16:05;;;;;;;3.50;1.47;;;;;;;;;;5055107;28;20255;-69
2021/10/13 03:18:38;;;;;;;1.30;1.20;;;;;;;;;;5035161;28;20201;-69
2021/10/13 03:21:08;;;;;;;2.00;1.03;;;;;;;;;;5057226;28;20223;-68
2021/10/13 03:23:41;;;;;;;2.57;1.07;;;;;;;;;;5050803;28;20208;-68
2021/10/13 03:26:15;;;;;;;2.17;1.23;;;;;;;;;;5069029;28;20217;-69
2021/10/13 03:28:47;;;;;;;2.27;1.40;;;;;;;;;;5047998;28;20733;-69
2021/10/13 03:31:18;;;;;;;2.67;1.30;;;;;;;;;;5055831;28;20276;-68
2021/10/13 03:33:52;;;;;;;1.23;0.90;;;;;;;;;;5058340;28;20203;-68
2021/10/13 03:36:37;;;;;;;2.77;0.93;;;;;;;;;;5071059;28;20658;-69
2021/10/13 03:39:18;;;;;;;2.60;1.13;;;;;;;;;;5045039;28;20627;-69
2021/10/13 03:41:49;;;;;;;2.17;1.23;;;;;;;;;;5069338;28;20193;-68
2021/10/13 03:44:22;;;;;;;1.67;1.10;;;;;;;;;;5068130;28;20208;-69
2021/10/13 03:46:49;;;;;;;1.70;1.10;;;;;;;;;;5053637;28;20226;-69
2021/10/13 03:49:20;;;;;;;2.30;1.10;;;;;;;;;;5063525;28;20545;-69
2021/10/13 03:51:51;;;;;;;1.87;0.90;;;;;;;;;;5062069;28;20209;-69
2021/10/13 03:54:27;;;;;;;1.50;1.23;;;;;;;;;;5069450;28;20193;-69
2021/10/13 03:56:55;;;;;;;1.47;0.80;;;;;;;;;;5060684;28;20200;-69
2021/10/13 03:59:25;;;;;;;2.00;1.17;;;;;;;;;;5068196;28;20194;-68
2021/10/13 04:01:58;;;;;;;3.50;1.23;;;;;;;;;;5067380;28;20283;-69
2021/10/13 04:04:43;;;;;;;1.40;1.10;;;;;;;;;;5083126;28;20186;-68
2021/10/13 04:07:14;;;;;;;1.67;1.20;;;;;;;;;;5047469;28;20686;-68
2021/10/13 04:09:57;;;;;;;2.83;1.33;;;;;;;;;;5065922;28;20241;-68
2021/10/13 04:12:29;;;;;;;2.43;1.40;;;;;;;;;;5068546;28;20224;-69
2021/10/13 04:14:57;;;;;;;1.97;1.10;;;;;;;;;;5055728;28;20178;-69
2021/10/13 04:17:33;;;;;;;2.07;0.97;;;;;;;;;;5064292;28;20874;-68
2021/10/13 04:20:06;;;;;;;2.53;1.10;;;;;;;;;;5066440;28;20213;-69
2021/10/13 04:22:41;;;;;;;3.23;1.33;;;;;;;;;;5068634;28;20888;-69
2021/10/13 04:25:12;;;;;;;2.60;1.10;;;;;;;;;;5070361;28;20189;-68
2021/10/13 04:27:43;;;;;;;2.00;1.07;;;;;;;;;;5069475;28;20221;-68
2021/10/13 04:30:15;;;;;;;1.57;0.90;;;;;;;;;;5068519;28;20202;-69
2021/10/13 04:32:45;;;;;;;1.30;1.00;;;;;;;;;;5067757;28;20311;-68
2021/10/13 04:35:14;;;;;;;1.43;0.87;;;;;;;;;;5062340;28;20201;-68
2021/10/13 04:37:47;;;;;;;3.27;1.13;;;;;;;;;;5070079;28;20193;-68
2021/10/13 04:40:19;;;;;;;2.63;1.20;;;;;;;;;;5064568;28;20209;-69
2021/10/13 04:42:48;;;;;;;3.13;1.30;;;;;;;;;;5067070;28;20197;-69
2021/10/13 04:45:18;;;;;;;1.63;1.07;;;;;;;;;;5065161;28;20637;-68
2021/10/13 04:47:47;;;;;;;1.53;0.90;;;;;;;;;;5067986;28;20844;-69
2021/10/13 04:50:20;;;;;;;2.07;1.07;;;;;;;;;;5068148;28;20202;-69
2021/10/13 04:52:51;;;;;;;2.53;1.30;;;;;;;;;;5065079;28;20209;-68
2021/10/13 04:55:18;;;;;;;1.90;1.10;;;;;;;;;;5049328;28;20661;-68
2021/10/13 04:57:51;;;;;;;2.43;1.00;;;;;;;;;;5065387;28;20654;-69
2021/10/13 05:00:24;;;;;;;1.23;1.13;;;;;;;;;;5067808;28;20262;-69
2021/10/13 05:02:55;;;;;;;2.17;1.10;;;;;;;;;;5063292;28;20218;-69
2021/10/13 05:05:27;;;;;;;1.60;1.00;;;;;;;;;;5067843;28;20200;-69
2021/10/13 05:08:10;;;;;;;2.33;1.00;;;;;;;;;;5074414;28;20224;-68
2021/10/13 05:11:08;;;;;;;1.73;0.90;;;;;;;;;;5071019;28;20221;-67
2021/10/13 05:13:41;;;;;;;1.93;1.20;;;;;;;;;;5063704;28;20217;-67
2021/10/13 05:16:10;;;;;;;2.30;1.00;;;;;;;;;;5067679;28;20177;-67
2021/10/13 05:18:41;;;;;;;1.67;0.90;;;;;;;;;;5067217;28;20201;-67
2021/10/13 05:21:15;;;;;;;0.93;0.77;;;;;;;;;;5062263;28;20215;-67
2021/10/13 05:23:46;;;;;;;1.63;0.83;;;;;;;;;;5062256;28;20267;-67
2021/10/13 05:26:18;;;;;;;2.13;1.20;;;;;;;;;;5061676;28;20857;-67
2021/10/13 05:28:50;;;;;;;1.83;1.20;;;;;;;;;;5065166;28;20210;-67
2021/10/13 05:31:21;;;;;;;1.67;1.07;;;;;;;;;;5067539;28;20236;-67
2021/10/13 05:33:53;;;;;;;2.20;1.03;;;;;;;;;;5066479;28;20216;-67
2021/10/13 05:36:21;;;;;;;2.00;1.00;;;;;;;;;;5065516;28;20210;-67
2021/10/13 05:38:58;;;;;;;3.43;1.10;;;;;;;;;;5070944;28;20254;-67
2021/10/13 05:41:29;;;;;;;1.63;1.10;;;;;;;;;;5071933;28;20201;-67
2021/10/13 05:43:59;;;;;;;2.37;1.47;;;;;;;;;;5069813;28;20632;-67
2021/10/13 05:46:28;;;;;;;1.60;0.90;;;;;;;;;;5073965;28;20288;-68
2021/10/13 05:49:01;;;;;;;1.10;0.90;;;;;;;;;;5060375;28;20210;-69
2021/10/13 05:51:33;;;;;;;3.80;1.00;;;;;;;;;;5076309;28;20263;-69
2021/10/13 05:54:04;;;;;;;1.30;0.90;;;;;;;;;;5058883;28;20209;-70
2021/10/13 05:56:34;;;;;;;1.70;1.20;;;;;;;;;;5080452;28;20189;-69
2021/10/13 05:59:06;;;;;;;2.27;1.00;;;;;;;;;;5066378;28;20248;-69
2021/10/13 06:01:40;;;;;;;1.63;1.00;;;;;;;;;;5069610;28;20197;-69
2021/10/13 06:04:11;;;;;;;1.67;1.07;;;;;;;;;;5067740;28;20289;-70
2021/10/13 06:06:43;;;;;;;1.40;0.90;;;;;;;;;;5078274;28;20197;-69
2021/10/13 06:09:16;;;;;;;11.20;3.07;;;;;;;;;;5070536;27;20243;-68
2021/10/13 06:11:49;;;;;;;30.63;6.67;;;;;;;;;;5072569;28;20297;-69
2021/10/13 06:14:19;;;;;;;30.57;8.00;;;;;;;;;;5091634;28;20223;-69
2021/10/13 06:17:02;;;;;;;35.07;9.97;;;;;;;;;;5088866;28;20264;-70
2021/10/13 06:19:34;;;;;;;42.80;10.07;;;;;;;;;;5092332;28;20197;-69
2021/10/13 06:22:05;;;;;;;42.67;9.83;;;;;;;;;;5066272;28;20213;-66
2021/10/13 06:24:36;;;;;;;34.13;9.07;;;;;;;;;;5087136;28;20196;-66
2021/10/13 06:27:07;;;;;;;30.23;8.87;;;;;;;;;;5089431;28;20197;-65
2021/10/13 06:29:39;;;;;;;22.30;7.37;;;;;;;;;;5075898;28;20200;-67
2021/10/13 06:32:10;;;;;;;18.83;6.83;;;;;;;;;;5096905;28;20197;-67
2021/10/13 06:34:40;;;;;;;24.20;7.17;;;;;;;;;;5080051;28;20210;-67
2021/10/13 06:37:14;;;;;;;17.90;5.93;;;;;;;;;;5084845;28;20219;-66
2021/10/13 06:39:46;;;;;;;23.23;5.20;;;;;;;;;;5089363;28;20189;-67
2021/10/13 06:42:16;;;;;;;18.57;4.60;;;;;;;;;;5090542;28;20201;-66
2021/10/13 06:44:46;;;;;;;10.63;4.43;;;;;;;;;;5091909;28;20296;-68
2021/10/13 06:47:15;;;;;;;9.10;4.20;;;;;;;;;;5074010;28;20216;-68
2021/10/13 06:49:47;;;;;;;9.77;3.23;;;;;;;;;;5088300;28;20538;-68
2021/10/13 06:52:20;;;;;;;11.17;3.30;;;;;;;;;;5063527;28;20216;-67
2021/10/13 06:54:51;;;;;;;9.67;3.73;;;;;;;;;;5086680;28;20197;-68
2021/10/13 06:57:23;;;;;;;8.40;3.00;;;;;;;;;;5063014;28;20233;-68
2021/10/13 06:59:51;;;;;;;6.20;3.27;;;;;;;;;;5093869;28;20541;-68
2021/10/13 07:02:20;;;;;;;6.43;2.87;;;;;;;;;;5089454;28;20203;-66
2021/10/13 07:04:50;;;;;;;5.93;2.47;;;;;;;;;;5073566;28;20214;-67
2021/10/13 07:07:21;;;;;;;5.63;2.50;;;;;;;;;;5089692;28;20254;-66
2021/10/13 07:09:52;;;;;;;3.37;2.23;;;;;;;;;;5103070;28;20220;-67
2021/10/13 07:12:24;;;;;;;4.30;2.50;;;;;;;;;;5078041;28;20259;-67
2021/10/13 07:14:58;;;;;;;5.50;2.10;;;;;;;;;;5066045;28;20197;-67
2021/10/13 07:17:31;;;;;;;5.00;2.20;;;;;;;;;;5064221;28;20659;-69
2021/10/13 07:20:02;;;;;;;4.83;2.17;;;;;;;;;;5052002;28;20228;-69
2021/10/13 07:22:39;;;;;;;4.73;2.33;;;;;;;;;;5066003;28;20210;-66
2021/10/13 07:25:11;;;;;;;7.07;2.17;;;;;;;;;;5064917;28;20261;-66
2021/10/13 07:27:43;;;;;;;5.23;2.13;;;;;;;;;;5083213;28;20262;-66
2021/10/13 07:30:22;;;;;;;7.33;2.27;;;;;;;;;;5064667;28;20195;-69
2021/10/13 07:32:52;;;;;;;2.60;1.63;;;;;;;;;;5065124;28;20678;-68
2021/10/13 07:35:29;;;;;;;5.97;1.77;;;;;;;;;;5072277;28;20525;-65
2021/10/13 07:38:07;;;;;;;4.73;2.10;;;;;;;;;;5059069;28;20212;-65
2021/10/13 07:40:38;;;;;;;5.77;1.87;;;;;;;;;;5070919;28;20224;-65
2021/10/13 07:43:10;;;;;;;5.47;1.80;;;;;;;;;;5047403;28;20198;-67
2021/10/13 07:45:40;;;;;;;3.23;1.70;;;;;;;;;;5059471;28;20224;-65
2021/10/13 07:48:10;;;;;;;8.20;2.07;;;;;;;;;;5059690;28;20246;-66
2021/10/13 07:50:43;;;;;;;3.30;1.90;;;;;;;;;;5069919;28;20218;-64
2021/10/13 07:53:12;;;;;;;3.83;1.73;;;;;;;;;;5058755;28;20195;-65
2021/10/13 07:55:44;;;;;;;3.77;1.90;;;;;;;;;;5064926;28;20202;-65
2021/10/13 07:58:11;;;;;;;2.50;1.90;;;;;;;;;;5064423;28;20207;-67
2021/10/13 08:00:41;;;;;;;2.57;1.37;;;;;;;;;;5065121;28;20223;-68
2021/10/13 08:03:15;;;;;;;3.07;1.77;;;;;;;;;;5046599;28;20204;-66
2021/10/13 08:05:51;;;;;;;2.67;1.90;;;;;;;;;;5076152;28;20234;-68
2021/10/13 08:08:23;;;;;;;3.73;1.77;;;;;;;;;;5048650;28;20218;-67
2021/10/13 08:10:53;;;;;;;2.83;1.63;;;;;;;;;;5060510;28;20208;-67
2021/10/13 08:13:23;;;;;;;3.50;1.50;;;;;;;;;;5043172;28;20751;-66
2021/10/13 08:16:10;;;;;;;3.40;1.80;;;;;;;;;;5061369;28;20212;-67
2021/10/13 08:18:42;;;;;;;3.07;1.63;;;;;;;;;;5051286;28;20213;-67
2021/10/13 08:21:12;;;;;;;3.67;1.80;;;;;;;;;;5055292;28;20294;-67
2021/10/13 08:23:44;;;;;;;3.17;1.73;;;;;;;;;;5064546;28;20554;-67
2021/10/13 08:26:21;;;;;;;4.53;1.90;;;;;;;;;;5073288;28;20693;-67
2021/10/13 08:28:51;;;;;;;2.70;1.63;;;;;;;;;;5062079;28;21981;-67
2021/10/13 08:31:25;;;;;;;2.63;1.37;;;;;;;;;;5077064;28;20205;-67
2021/10/13 08:33:56;;;;;;;3.63;1.67;;;;;;;;;;5066642;28;20211;-68
2021/10/13 08:36:29;;;;;;;2.97;1.60;;;;;;;;;;5064413;28;20822;-65
2021/10/13 08:38:58;;;;;;;4.40;2.00;;;;;;;;;;5056061;28;20212;-66
2021/10/13 08:41:28;;;;;;;4.40;2.20;;;;;;;;;;5063096;28;20220;-67
2021/10/13 08:43:58;;;;;;;3.17;1.90;;;;;;;;;;5072932;28;20203;-67
2021/10/13 08:46:29;;;;;;;3.93;1.70;;;;;;;;;;5045439;28;20233;-66
2021/10/13 08:49:01;;;;;;;4.47;1.90;;;;;;;;;;5067526;28;20214;-66
2021/10/13 08:51:38;;;;;;;6.90;2.77;;;;;;;;;;5065840;28;20280;-66
2021/10/13 08:54:19;;;;;;;5.33;2.37;;;;;;;;;;5065168;28;20631;-66
2021/10/13 08:56:48;;;;;;;8.53;2.80;;;;;;;;;;5064879;28;20714;-69
2021/10/13 08:59:37;;;;;;;7.43;2.60;;;;;;;;;;5065372;28;20214;-65
2021/10/13 09:02:07;;;;;;;3.70;2.20;;;;;;;;;;5067245;28;20198;-66
2021/10/13 09:05:08;;;;;;;8.27;2.20;;;;;;;;;;5057962;28;20205;-68
2021/10/13 09:07:42;;;;;;;11.70;2.30;;;;;;;;;;5081015;28;20651;-67
2021/10/13 09:10:38;;;;;;;3.23;1.80;;;;;;;;;;5065417;28;20293;-67
2021/10/13 09:13:23;;;;;;;6.23;2.20;;;;;;;;;;5079888;28;20264;-66
2021/10/13 09:15:54;;;;;;;3.90;2.03;;;;;;;;;;5087497;28;20681;-69
2021/10/13 09:18:28;;;;;;;4.57;2.30;;;;;;;;;;5090353;28;20755;-69
2021/10/13 09:21:03;;;;;;;8.50;2.40;;;;;;;;;;5081379;28;20288;-66
2021/10/13 09:24:08;;;;;;;6.30;2.37;;;;;;;;;;5088316;28;20279;-66
2021/10/13 09:26:43;;;;;;;3.87;2.20;;;;;;;;;;5083275;28;20204;-69
2021/10/13 09:29:12;;;;;;;5.10;2.23;;;;;;;;;;5082834;28;20223;-68
2021/10/13 09:31:40;;;;;;;2.40;1.87;;;;;;;;;;5086130;28;20189;-67
2021/10/13 09:34:19;;;;;;;2.77;1.50;;;;;;;;;;5079701;28;20540;-68
2021/10/13 09:36:51;;;;;;;2.97;1.60;;;;;;;;;;5067368;28;20201;-69
2021/10/13 09:39:23;;;;;;;1.93;1.47;;;;;;;;;;5083951;28;20209;-69
2021/10/13 09:42:10;;;;;;;3.53;1.53;;;;;;;;;;5088399;28;20790;-68
2021/10/13 09:44:40;;;;;;;3.13;1.70;;;;;;;;;;5082927;28;20220;-70
2021/10/13 09:47:12;;;;;;;2.70;1.53;;;;;;;;;;5084905;28;20244;-69
2021/10/13 09:49:50;;;;;;;2.70;1.43;;;;;;;;;;5086635;28;20228;-68
2021/10/13 09:52:20;;;;;;;3.50;1.60;;;;;;;;;;5086927;28;20204;-68
2021/10/13 09:55:08;;;;;;;2.73;1.60;;;;;;;;;;5051019;28;20606;-67
2021/10/13 09:57:42;;;;;;;2.70;1.57;;;;;;;;;;5086818;28;20247;-69
2021/10/13 10:00:12;;;;;;;4.60;1.57;;;;;;;;;;5073575;28;20216;-65
2021/10/13 10:02:45;;;;;;;3.07;1.30;;;;;;;;;;5094165;28;20213;-64
2021/10/13 10:05:21;;;;;;;2.47;1.50;;;;;;;;;;5088549;28;20540;-64
2021/10/13 10:08:13;;;;;;;5.20;1.40;;;;;;;;;;5081081;28;20191;-63
2021/10/13 10:11:15;;;;;;;4.47;1.30;;;;;;;;;;5067126;28;20213;-63
2021/10/13 10:13:43;;;;;;;3.47;1.50;;;;;;;;;;5052802;28;20670;-63
2021/10/13 10:16:27;;;;;;;3.33;1.60;;;;;;;;;;5087231;28;20197;-64
2021/10/13 10:19:24;;;;;;;2.83;1.23;;;;;;;;;;5074987;28;20198;-64
2021/10/13 10:22:22;;;;;;;2.53;1.30;;;;;;;;;;5068890;28;20666;-64
2021/10/13 10:24:56;;;;;;;3.77;1.40;;;;;;;;;;5094597;27;20213;-63
2021/10/13 10:27:26;;;;;;;3.07;1.60;;;;;;;;;;5073763;28;20624;-64
2021/10/13 10:30:19;;;;;;;1.90;1.27;;;;;;;;;;5072128;28;20236;-64
2021/10/13 10:32:51;;;;;;;2.27;1.23;;;;;;;;;;5081048;28;20532;-64
2021/10/13 10:35:42;;;;;;;2.75;1.40;;;;;;;;;;5088261;28;20420;-67
2021/10/13 10:38:17;;;;;;;3.57;1.60;;;;;;;;;;5109502;28;20197;-67
2021/10/13 10:40:48;;;;;;;7.63;1.50;;;;;;;;;;5093488;28;20543;-67
2021/10/13 10:43:21;;;;;;;2.20;1.20;;;;;;;;;;5088185;28;20683;-65
2021/10/13 10:45:55;;;;;;;2.10;1.37;;;;;;;;;;5086131;28;20637;-65
2021/10/13 10:48:46;;;;;;;2.90;1.07;;;;;;;;;;5087474;28;20220;-65
2021/10/13 10:51:16;;;;;;;2.00;1.40;;;;;;;;;;5072350;28;20223;-65
2021/10/13 10:54:21;;;;;;;2.83;1.10;;;;;;;;;;5086375;28;20193;-64
2021/10/13 10:56:53;;;;;;;2.07;1.07;;;;;;;;;;5066651;28;20200;-65
2021/10/13 10:59:38;;;;;;;2.87;1.20;;;;;;;;;;5090218;28;20193;-64
2021/10/13 11:02:11;;;;;;;2.83;1.10;;;;;;;;;;5074236;28;20232;-65
2021/10/13 11:04:41;;;;;;;3.07;1.23;;;;;;;;;;5090017;28;20208;-66
2021/10/13 11:07:32;;;;;;;3.07;1.10;;;;;;;;;;5088909;28;20196;-66
2021/10/13 11:10:02;;;;;;;2.97;1.30;;;;;;;;;;5067649;28;20244;-68
2021/10/13 11:12:54;;;;;;;3.77;0.93;;;;;;;;;;5069848;28;20234;-66
2021/10/13 11:15:32;;;;;;;4.87;1.00;;;;;;;;;;5091057;28;20201;-66
2021/10/13 11:18:17;;;;;;;4.60;0.80;;;;;;;;;;5089421;28;20287;-67
2021/10/13 11:20:48;;;;;;;5.23;1.07;;;;;;;;;;5089281;28;20246;-68
2021/10/13 11:23:18;;;;;;;3.17;1.23;;;;;;;;;;5084860;28;20225;-67
2021/10/13 11:25:53;;;;;;;3.20;0.90;;;;;;;;;;5088172;28;20200;-68
2021/10/13 11:28:38;;;;;;;2.63;1.27;;;;;;;;;;5072943;28;20335;-68
2021/10/13 11:31:10;;;;;;;2.87;1.10;;;;;;;;;;5062552;28;20242;-69
2021/10/13 11:33:45;;;;;;;2.03;1.00;;;;;;;;;;5084397;28;20212;-69
2021/10/13 11:36:20;;;;;;;1.83;1.00;;;;;;;;;;5083586;28;20200;-68
2021/10/13 11:38:49;;;;;;;1.80;0.97;;;;;;;;;;5069738;28;20220;-69
2021/10/13 11:41:22;;;;;;;1.93;1.07;;;;;;;;;;5086891;28;20201;-67
2021/10/13 11:43:52;;;;;;;1.70;0.90;;;;;;;;;;5085516;28;20196;-68
2021/10/13 11:46:30;;;;;;;4.83;1.23;;;;;;;;;;5085189;28;20231;-68
2021/10/13 11:49:04;;;;;;;3.93;1.10;;;;;;;;;;5085020;28;20220;-67
2021/10/13 11:51:34;;;;;;;4.97;1.30;;;;;;;;;;5084978;28;20270;-69
2021/10/13 11:54:05;;;;;;;1.53;0.97;;;;;;;;;;5084767;28;20238;-68
2021/10/13 11:56:51;;;;;;;3.07;1.13;;;;;;;;;;5082348;28;20270;-67
2021/10/13 11:59:20;;;;;;;2.37;1.03;;;;;;;;;;5071114;28;20217;-66
2021/10/13 12:01:50;;;;;;;3.00;1.23;;;;;;;;;;5087456;28;20206;-69
2021/10/13 12:04:20;;;;;;;4.50;1.30;;;;;;;;;;5094516;28;20213;-68
2021/10/13 12:06:52;;;;;;;3.20;1.13;;;;;;;;;;5084815;28;20197;-68
2021/10/13 12:09:23;;;;;;;2.90;1.30;;;;;;;;;;5085904;28;20248;-69
2021/10/13 12:11:53;;;;;;;2.63;0.93;;;;;;;;;;5069433;28;20201;-68
2021/10/13 12:14:35;;;;;;;3.20;1.20;;;;;;;;;;5068586;28;20238;-66
2021/10/13 12:17:22;;;;;;;4.53;1.57;;;;;;;;;;5064826;28;20204;-66
2021/10/13 12:19:56;;;;;;;3.93;1.20;;;;;;;;;;5050840;28;20614;-67
2021/10/13 12:22:26;;;;;;;2.37;1.07;;;;;;;;;;5049043;28;20237;-67
2021/10/13 12:24:54;;;;;;;3.23;1.30;;;;;;;;;;5064130;28;20201;-65
2021/10/13 12:27:29;;;;;;;4.60;1.33;;;;;;;;;;5049888;28;20734;-66
2021/10/13 12:30:01;;;;;;;5.67;1.50;;;;;;;;;;5048052;28;20232;-66
2021/10/13 12:32:42;;;;;;;4.10;1.53;;;;;;;;;;5067266;28;20268;-64
2021/10/13 12:35:16;;;;;;;3.73;1.40;;;;;;;;;;5062782;28;20709;-64
2021/10/13 12:37:50;;;;;;;4.40;2.27;;;;;;;;;;5074725;28;20219;-64
2021/10/13 12:40:19;;;;;;;5.63;1.87;;;;;;;;;;5063143;28;20512;-64
2021/10/13 12:42:53;;;;;;;7.17;2.00;;;;;;;;;;5050150;28;20211;-64
2021/10/13 12:45:28;;;;;;;8.87;2.03;;;;;;;;;;5044784;28;20218;-64
2021/10/13 12:48:22;;;;;;;5.63;2.43;;;;;;;;;;5067172;28;20202;-65
2021/10/13 12:51:05;;;;;;;8.73;1.87;;;;;;;;;;5063674;28;20252;-64
2021/10/13 12:53:37;;;;;;;5.23;2.33;;;;;;;;;;5050124;28;20320;-64
2021/10/13 12:56:13;;;;;;;5.37;1.87;;;;;;;;;;5049154;28;20259;-65
2021/10/13 12:58:51;;;;;;;5.00;1.67;;;;;;;;;;5063973;28;20590;-65
2021/10/13 13:01:19;;;;;;;7.27;1.60;;;;;;;;;;5048934;28;20365;-65
2021/10/13 13:03:49;;;;;;;4.80;1.90;;;;;;;;;;5046489;28;20624;-66
2021/10/13 13:06:19;;;;;;;5.23;1.80;;;;;;;;;;5040948;28;20229;-66
2021/10/13 13:08:50;;;;;;;6.23;2.23;;;;;;;;;;5066311;28;20673;-68
2021/10/13 13:11:36;;;;;;;11.87;2.07;;;;;;;;;;5067118;28;20277;-65
2021/10/13 13:14:08;;;;;;;8.20;1.60;;;;;;;;;;5068791;28;20293;-67
2021/10/13 13:16:50;;;;;;;12.87;2.37;;;;;;;;;;5065336;28;20575;-66
2021/10/13 13:19:19;;;;;;;7.60;2.17;;;;;;;;;;5048978;28;20600;-66
2021/10/13 13:21:50;;;;;;;15.30;2.30;;;;;;;;;;5062392;28;20315;-66
2021/10/13 13:24:18;;;;;;;5.77;1.60;;;;;;;;;;5045694;28;20631;-66
2021/10/13 13:26:47;;;;;;;8.57;1.47;;;;;;;;;;5071423;28;20639;-67
2021/10/13 13:29:18;;;;;;;5.63;1.33;;;;;;;;;;5064171;28;20648;-67
2021/10/13 13:31:48;;;;;;;5.10;1.37;;;;;;;;;;5065200;28;20590;-66
2021/10/13 13:34:18;;;;;;;2.23;1.00;;;;;;;;;;5048125;28;20212;-66
2021/10/13 13:36:49;;;;;;;2.73;1.17;;;;;;;;;;5070113;28;20283;-64
2021/10/13 13:39:25;;;;;;;6.57;1.40;;;;;;;;;;5067488;28;20206;-66
2021/10/13 13:41:57;;;;;;;2.90;1.10;;;;;;;;;;5064726;28;20634;-68
2021/10/13 13:44:28;;;;;;;2.30;1.10;;;;;;;;;;5060943;28;20200;-66
2021/10/13 13:47:01;;;;;;;3.17;0.80;;;;;;;;;;5043072;28;20271;-65
2021/10/13 13:49:30;;;;;;;4.00;0.80;;;;;;;;;;5065655;28;20213;-66
2021/10/13 13:52:04;;;;;;;11.23;1.43;;;;;;;;;;5065121;28;20352;-65
2021/10/13 13:54:39;;;;;;;2.13;0.87;;;;;;;;;;5063866;28;20193;-65
2021/10/13 13:57:09;;;;;;;3.03;1.10;;;;;;;;;;5062829;28;20228;-65
2021/10/13 13:59:53;;;;;;;1.70;0.83;;;;;;;;;;5068369;28;20737;-65
2021/10/13 14:02:24;;;;;;;8.30;1.00;;;;;;;;;;5069787;28;20214;-67
2021/10/13 14:04:56;;;;;;;2.97;0.77;;;;;;;;;;5072184;28;20224;-68
2021/10/13 14:07:26;;;;;;;2.40;0.80;;;;;;;;;;5068197;28;20201;-67
2021/10/13 14:09:57;;;;;;;2.70;0.70;;;;;;;;;;5075111;28;20236;-66
2021/10/13 14:12:25;;;;;;;3.67;1.07;;;;;;;;;;5073506;28;20571;-66
2021/10/13 14:14:56;;;;;;;8.57;0.90;;;;;;;;;;5084939;28;20185;-66
2021/10/13 14:17:30;;;;;;;2.23;1.03;;;;;;;;;;5090165;28;20205;-67
2021/10/13 14:20:00;;;;;;;1.67;0.70;;;;;;;;;;5087723;28;20215;-69
2021/10/13 14:22:31;;;;;;;4.50;1.10;;;;;;;;;;5086833;28;20212;-67
2021/10/13 14:25:03;;;;;;;4.47;0.80;;;;;;;;;;5069215;28;20201;-68
2021/10/13 14:27:33;;;;;;;1.70;0.60;;;;;;;;;;5071474;28;20682;-68
2021/10/13 14:30:08;;;;;;;1.93;1.10;;;;;;;;;;5101180;28;20249;-68
2021/10/13 14:32:38;;;;;;;1.10;0.50;;;;;;;;;;5068464;28;20207;-69
2021/10/13 14:35:08;;;;;;;2.17;0.87;;;;;;;;;;5073384;28;20236;-67
2021/10/13 14:37:38;;;;;;;3.03;1.00;;;;;;;;;;5091415;28;20189;-67
2021/10/13 14:40:07;;;;;;;2.50;0.73;;;;;;;;;;5090206;28;20200;-64
2021/10/13 14:42:40;;;;;;;2.57;1.20;;;;;;;;;;5089016;28;20838;-65
2021/10/13 14:45:15;;;;;;;2.90;1.47;;;;;;;;;;5079929;28;20807;-68
2021/10/13 14:47:43;;;;;;;2.20;1.10;;;;;;;;;;5090811;28;20669;-71
2021/10/13 14:50:13;;;;;;;5.37;1.27;;;;;;;;;;5069029;28;20267;-67
2021/10/13 14:52:43;;;;;;;1.47;0.93;;;;;;;;;;5091046;28;20285;-67
2021/10/13 14:55:24;;;;;;;3.30;1.00;;;;;;;;;;5089740;28;20218;-66
2021/10/13 14:57:53;;;;;;;3.30;1.00;;;;;;;;;;5092084;28;20209;-67
2021/10/13 15:00:23;;;;;;;2.47;1.27;;;;;;;;;;5072195;28;20201;-68
2021/10/13 15:02:56;;;;;;;3.57;1.40;;;;;;;;;;5089006;28;20211;-67
2021/10/13 15:05:28;;;;;;;7.97;1.50;;;;;;;;;;5086287;28;20635;-67
2021/10/13 15:08:01;;;;;;;4.20;1.40;;;;;;;;;;5103314;28;20651;-66
2021/10/13 15:10:32;;;;;;;3.00;1.43;;;;;;;;;;5086357;28;20235;-68
2021/10/13 15:13:04;;;;;;;2.20;1.00;;;;;;;;;;5082675;28;20282;-69
2021/10/13 15:15:33;;;;;;;2.17;1.13;;;;;;;;;;5088580;28;20209;-68
2021/10/13 15:18:04;;;;;;;3.20;0.83;;;;;;;;;;5088771;28;20209;-68
2021/10/13 15:20:35;;;;;;;3.93;1.27;;;;;;;;;;5102755;28;20329;-68
2021/10/13 15:23:06;;;;;;;3.97;1.20;;;;;;;;;;5092779;28;20215;-67
2021/10/13 15:25:42;;;;;;;3.07;0.93;;;;;;;;;;5086060;28;20211;-66
2021/10/13 15:28:12;;;;;;;1.90;0.93;;;;;;;;;;5089122;28;20213;-66
2021/10/13 15:30:58;;;;;;;3.43;1.50;;;;;;;;;;5082963;28;20252;-66
2021/10/13 15:33:30;;;;;;;2.57;0.90;;;;;;;;;;5085793;28;20213;-66
2021/10/13 15:36:05;;;;;;;6.03;1.23;;;;;;;;;;5082288;28;20206;-67
2021/10/13 15:38:34;;;;;;;4.30;1.13;;;;;;;;;;5087623;28;20258;-68
2021/10/13 15:41:05;;;;;;;5.47;1.10;;;;;;;;;;5090959;27;20198;-69
2021/10/13 15:43:37;;;;;;;2.40;1.10;;;;;;;;;;5084963;28;20201;-68
2021/10/13 15:46:08;;;;;;;3.57;1.23;;;;;;;;;;5095132;27;20221;-68
2021/10/13 15:48:38;;;;;;;3.70;1.40;;;;;;;;;;5084698;28;20540;-68
2021/10/13 15:51:09;;;;;;;3.27;1.20;;;;;;;;;;5084201;28;20241;-68
2021/10/13 15:53:41;;;;;;;3.97;1.30;;;;;;;;;;5080058;28;20201;-68
2021/10/13 15:56:12;;;;;;;3.50;1.10;;;;;;;;;;5081283;28;20295;-68
2021/10/13 15:58:47;;;;;;;4.20;0.90;;;;;;;;;;5081771;28;20200;-68
2021/10/13 16:01:31;;;;;;;2.87;0.97;;;;;;;;;;5079740;28;20358;-68
2021/10/13 16:04:02;;;;;;;4.20;1.30;;;;;;;;;;5070370;28;20266;-68